createdAt,value
2017-08-26T00:00:39.762Z,12.18
2017-08-26T00:01:50.035Z,12.12
2017-08-26T00:03:00.309Z,12
2017-08-26T00:04:09.937Z,11.99
2017-08-26T00:05:20.208Z,11.96
2017-08-26T00:06:30.479Z,12.05
2017-08-26T00:07:40.750Z,12
2017-08-26T00:08:50.374Z,11.89
2017-08-26T00:10:00.324Z,11.85
2017-08-26T00:11:10.601Z,11.93
2017-08-26T00:12:20.866Z,11.8
2017-08-26T00:13:31.138Z,11.77
2017-08-26T00:14:41.406Z,11.71
2017-08-26T00:15:51.681Z,11.6
2017-08-26T00:17:01.304Z,11.58
2017-08-26T00:18:11.255Z,11.63
2017-08-26T00:19:21.201Z,11.6
2017-08-26T00:20:31.475Z,11.6
2017-08-26T00:21:41.742Z,11.62
2017-08-26T00:22:51.693Z,11.55
2017-08-26T00:24:01.640Z,11.53
2017-08-26T00:25:11.586Z,11.55
2017-08-26T00:26:21.552Z,11.63
2017-08-26T00:27:31.826Z,11.56
2017-08-26T00:28:42.106Z,11.55
2017-08-26T00:29:52.049Z,11.62
2017-08-26T00:31:02.318Z,11.59
2017-08-26T00:32:12.588Z,11.6
2017-08-26T00:33:22.534Z,11.6
2017-08-26T00:34:32.812Z,11.62
2017-08-26T00:35:43.085Z,11.63
2017-08-26T00:36:52.708Z,11.65
2017-08-26T00:38:02.656Z,11.7
2017-08-26T00:39:12.603Z,11.63
2017-08-26T00:40:22.228Z,11.65
2017-08-26T00:41:32.182Z,11.65
2017-08-26T00:42:42.457Z,11.63
2017-08-26T00:43:52.402Z,11.63
2017-08-26T00:45:02.352Z,11.67
2017-08-26T00:46:12.623Z,11.62
2017-08-26T00:47:22.569Z,11.58
2017-08-26T00:48:32.516Z,11.65
2017-08-26T00:49:42.786Z,11.62
2017-08-26T00:50:53.056Z,11.67
2017-08-26T00:52:03.327Z,11.63
2017-08-26T00:53:13.280Z,11.62
2017-08-26T00:54:23.548Z,11.65
2017-08-26T00:55:33.495Z,11.68
2017-08-26T00:56:43.118Z,11.7
2017-08-26T00:57:53.064Z,11.65
2017-08-26T00:59:03.013Z,11.76
2017-08-26T01:00:13.279Z,11.67
2017-08-26T01:01:23.546Z,11.62
2017-08-26T01:02:33.494Z,11.62
2017-08-26T01:03:43.122Z,11.67
2017-08-26T01:04:53.070Z,11.65
2017-08-26T01:06:03.014Z,11.71
2017-08-26T01:07:13.283Z,11.6
2017-08-26T01:08:23.550Z,11.63
2017-08-26T01:09:33.817Z,11.68
2017-08-26T01:10:43.768Z,11.68
2017-08-26T01:11:53.720Z,11.62
2017-08-26T01:13:03.991Z,11.63
2017-08-26T01:14:14.264Z,11.6
2017-08-26T01:15:24.213Z,11.6
2017-08-26T01:16:34.495Z,11.65
2017-08-26T01:17:44.771Z,11.6
2017-08-26T01:18:55.050Z,11.63
2017-08-26T01:20:05.004Z,11.63
2017-08-26T01:21:15.272Z,11.68
2017-08-26T01:22:25.541Z,11.6
2017-08-26T01:23:35.807Z,11.71
2017-08-26T01:24:46.071Z,11.58
2017-08-26T01:25:56.032Z,11.63
2017-08-26T01:27:05.660Z,11.62
2017-08-26T01:28:15.608Z,11.65
2017-08-26T01:29:25.874Z,11.6
2017-08-26T01:30:36.153Z,11.7
2017-08-26T01:31:46.096Z,11.63
2017-08-26T01:32:56.402Z,11.62
2017-08-26T01:34:06.671Z,11.58
2017-08-26T01:35:16.619Z,11.58
2017-08-26T01:36:26.883Z,11.58
2017-08-26T01:37:37.164Z,11.59
2017-08-26T01:38:47.109Z,11.62
2017-08-26T01:39:57.056Z,11.59
2017-08-26T01:41:07.329Z,11.56
2017-08-26T01:42:17.640Z,11.56
2017-08-26T01:43:27.264Z,11.44
2017-08-26T01:44:37.533Z,11.51
2017-08-26T01:45:47.477Z,11.51
2017-08-26T01:46:57.753Z,11.51
2017-08-26T01:48:08.020Z,11.49
2017-08-26T01:49:18.296Z,11.44
2017-08-26T01:50:28.562Z,11.45
2017-08-26T01:51:38.836Z,11.52
2017-08-26T01:52:49.110Z,11.49
2017-08-26T01:53:59.058Z,11.49
2017-08-26T01:55:09.329Z,11.53
2017-08-26T01:56:19.598Z,11.43
2017-08-26T01:57:29.552Z,11.43
2017-08-26T01:58:39.818Z,11.4
2017-08-26T01:59:50.184Z,11.4
2017-08-26T02:01:00.467Z,11.48
2017-08-26T02:02:10.738Z,11.38
2017-08-26T02:03:21.009Z,11.4
2017-08-26T02:04:30.635Z,11.35
2017-08-26T02:05:40.264Z,11.38
2017-08-26T02:06:50.532Z,11.33
2017-08-26T02:08:00.490Z,11.3
2017-08-26T02:09:10.439Z,11.23
2017-08-26T02:10:20.708Z,11.27
2017-08-26T02:11:30.653Z,11.3
2017-08-26T02:12:40.275Z,11.25
2017-08-26T02:13:50.230Z,11.25
2017-08-26T02:15:00.182Z,11.22
2017-08-26T02:16:10.128Z,11.22
2017-08-26T02:17:20.397Z,11.23
2017-08-26T02:18:30.665Z,11.18
2017-08-26T02:19:40.932Z,11.2
2017-08-26T02:20:51.200Z,11.13
2017-08-26T02:22:01.148Z,11.13
2017-08-26T02:23:11.093Z,11.12
2017-08-26T02:24:20.719Z,11.07
2017-08-26T02:25:30.679Z,11.07
2017-08-26T02:26:40.953Z,11.13
2017-08-26T02:27:51.223Z,11.02
2017-08-26T02:29:00.846Z,11
2017-08-26T02:30:11.121Z,11.04
2017-08-26T02:31:21.070Z,10.98
2017-08-26T02:32:31.341Z,10.94
2017-08-26T02:33:41.612Z,10.84
2017-08-26T02:34:51.578Z,10.94
2017-08-26T02:36:01.525Z,10.84
2017-08-26T02:37:11.476Z,10.71
2017-08-26T02:38:21.752Z,10.67
2017-08-26T02:39:32.016Z,10.69
2017-08-26T02:40:44.297Z,10.59
2017-08-26T02:41:54.567Z,10.61
2017-08-26T02:43:04.835Z,10.49
2017-08-26T02:44:15.098Z,10.53
2017-08-26T02:45:25.372Z,10.45
2017-08-26T02:46:35.641Z,10.45
2017-08-26T02:47:45.916Z,10.38
2017-08-26T02:48:55.863Z,10.34
2017-08-26T02:50:04.855Z,10.31
2017-08-26T02:51:15.136Z,10.23
2017-08-26T02:52:25.403Z,10.15
2017-08-26T02:53:35.675Z,10.21
2017-08-26T02:54:45.940Z,10.13
2017-08-26T02:55:56.225Z,10.05
2017-08-26T02:57:06.488Z,10.1
2017-08-26T02:58:16.756Z,9.99
2017-08-26T02:59:26.742Z,9.87
2017-08-26T03:00:37.009Z,9.92
2017-08-26T03:01:47.276Z,9.76
2017-08-26T03:02:57.219Z,9.76
2017-08-26T03:04:07.168Z,9.73
2017-08-26T03:05:17.438Z,9.64
2017-08-26T03:06:27.717Z,9.66
2017-08-26T03:07:37.985Z,9.62
2017-08-26T03:08:48.249Z,9.55
2017-08-26T03:09:58.197Z,9.62
2017-08-26T03:11:08.467Z,9.49
2017-08-26T03:12:18.736Z,9.4
2017-08-26T03:13:29.002Z,9.48
2017-08-26T03:14:38.944Z,9.51
2017-08-26T03:15:49.211Z,9.45
2017-08-26T03:16:58.836Z,9.52
2017-08-26T03:18:09.107Z,9.49
2017-08-26T03:19:19.370Z,9.42
2017-08-26T03:20:29.646Z,9.44
2017-08-26T03:21:39.268Z,9.45
2017-08-26T03:22:49.536Z,9.45
2017-08-26T03:23:59.805Z,9.42
2017-08-26T03:25:10.071Z,9.4
2017-08-26T03:26:20.015Z,9.47
2017-08-26T03:27:30.293Z,9.42
2017-08-26T03:28:39.917Z,9.44
2017-08-26T03:29:50.186Z,9.47
2017-08-26T03:30:59.492Z,9.48
2017-08-26T03:32:09.769Z,9.45
2017-08-26T03:33:20.044Z,9.51
2017-08-26T03:34:30.327Z,9.47
2017-08-26T03:35:40.599Z,9.44
2017-08-26T03:36:50.547Z,9.44
2017-08-26T03:38:00.827Z,9.52
2017-08-26T03:39:11.092Z,9.44
2017-08-26T03:40:21.039Z,9.34
2017-08-26T03:41:31.301Z,9.34
2017-08-26T03:42:41.568Z,9.36
2017-08-26T03:43:51.831Z,9.29
2017-08-26T03:45:02.102Z,9.34
2017-08-26T03:46:12.364Z,9.34
2017-08-26T03:47:22.629Z,9.42
2017-08-26T03:48:32.576Z,9.31
2017-08-26T03:49:42.540Z,9.39
2017-08-26T03:50:52.811Z,9.34
2017-08-26T03:52:02.755Z,9.3
2017-08-26T03:53:13.025Z,9.36
2017-08-26T03:54:22.970Z,9.34
2017-08-26T03:55:33.244Z,9.29
2017-08-26T03:56:43.506Z,9.34
2017-08-26T03:57:53.773Z,9.33
2017-08-26T03:59:03.716Z,9.34
2017-08-26T04:00:13.668Z,9.37
2017-08-26T04:01:23.930Z,9.29
2017-08-26T04:02:34.204Z,9.37
2017-08-26T04:03:44.474Z,9.24
2017-08-26T04:04:54.746Z,9.3
2017-08-26T04:06:05.012Z,9.22
2017-08-26T04:07:14.640Z,9.37
2017-08-26T04:08:24.265Z,9.19
2017-08-26T04:09:34.529Z,9.22
2017-08-26T04:10:44.477Z,9.37
2017-08-26T04:11:54.739Z,9.39
2017-08-26T04:13:05.009Z,9.37
2017-08-26T04:14:14.954Z,9.33
2017-08-26T04:15:24.582Z,9.33
2017-08-26T04:16:34.850Z,9.31
2017-08-26T04:17:44.798Z,9.31
2017-08-26T04:18:55.065Z,9.34
2017-08-26T04:20:05.333Z,9.39
2017-08-26T04:21:15.600Z,9.42
2017-08-26T04:22:25.868Z,9.42
2017-08-26T04:23:35.860Z,9.45
2017-08-26T04:24:46.128Z,9.47
2017-08-26T04:25:56.392Z,9.47
2017-08-26T04:27:06.353Z,9.47
2017-08-26T04:28:16.626Z,9.51
2017-08-26T04:29:26.253Z,9.51
2017-08-26T04:30:36.205Z,9.62
2017-08-26T04:31:46.495Z,9.56
2017-08-26T04:32:56.764Z,9.56
2017-08-26T04:34:06.394Z,9.56
2017-08-26T04:35:16.669Z,9.59
2017-08-26T04:36:26.953Z,9.66
2017-08-26T04:37:37.226Z,9.64
2017-08-26T04:38:47.501Z,9.64
2017-08-26T04:39:57.448Z,9.8
2017-08-26T04:41:07.713Z,9.77
2017-08-26T04:42:17.657Z,9.8
2017-08-26T04:43:27.935Z,9.8
2017-08-26T04:44:38.204Z,9.85
2017-08-26T04:45:47.826Z,9.92
2017-08-26T04:46:58.097Z,9.88
2017-08-26T04:48:07.718Z,9.99
2017-08-26T04:49:17.665Z,10.02
2017-08-26T04:50:27.614Z,10.02
2017-08-26T04:51:37.882Z,10.1
2017-08-26T04:52:47.827Z,10.13
2017-08-26T04:53:57.464Z,10.18
2017-08-26T04:55:07.412Z,10.21
2017-08-26T04:56:17.689Z,10.21
2017-08-26T04:57:27.966Z,10.27
2017-08-26T04:58:38.236Z,10.24
2017-08-26T04:59:48.502Z,10.31
2017-08-26T05:00:58.475Z,10.39
2017-08-26T05:02:08.744Z,10.38
2017-08-26T05:03:19.036Z,10.43
2017-08-26T05:04:29.304Z,10.36
2017-08-26T05:05:39.578Z,10.36
2017-08-26T05:06:49.856Z,10.57
2017-08-26T05:07:59.486Z,10.41
2017-08-26T05:09:09.434Z,10.57
2017-08-26T05:10:19.397Z,10.51
2017-08-26T05:11:29.342Z,10.49
2017-08-26T05:12:39.610Z,10.55
2017-08-26T05:13:49.555Z,10.55
2017-08-26T05:14:59.503Z,10.59
2017-08-26T05:16:08.810Z,10.58
2017-08-26T05:17:19.076Z,10.58
2017-08-26T05:18:29.344Z,10.58
2017-08-26T05:19:39.355Z,10.69
2017-08-26T05:20:49.638Z,10.71
2017-08-26T05:21:59.586Z,10.71
2017-08-26T05:23:09.555Z,10.83
2017-08-26T05:24:19.176Z,10.8
2017-08-26T05:25:29.444Z,10.87
2017-08-26T05:26:39.713Z,10.86
2017-08-26T05:27:49.983Z,10.87
2017-08-26T05:28:59.928Z,10.89
2017-08-26T05:30:10.195Z,10.89
2017-08-26T05:31:20.465Z,10.86
2017-08-26T05:32:30.733Z,10.92
2017-08-26T05:33:40.999Z,10.92
2017-08-26T05:34:51.270Z,10.98
2017-08-26T05:36:01.214Z,11
2017-08-26T05:37:10.849Z,10.97
2017-08-26T05:38:21.121Z,10.95
2017-08-26T05:39:31.075Z,11
2017-08-26T05:40:41.343Z,10.97
2017-08-26T05:41:51.864Z,11.02
2017-08-26T05:43:01.815Z,10.97
2017-08-26T05:44:12.093Z,11.01
2017-08-26T05:45:22.364Z,11
2017-08-26T05:46:32.637Z,10.98
2017-08-26T05:47:42.906Z,10.9
2017-08-26T05:48:53.176Z,10.84
2017-08-26T05:50:03.444Z,10.67
2017-08-26T05:51:13.072Z,10.76
2017-08-26T05:52:23.343Z,10.72
2017-08-26T05:53:33.296Z,10.76
2017-08-26T05:54:42.923Z,10.67
2017-08-26T05:55:52.876Z,10.67
2017-08-26T05:57:02.826Z,10.69
2017-08-26T05:58:12.773Z,10.65
2017-08-26T05:59:23.046Z,10.59
2017-08-26T06:00:33.315Z,10.58
2017-08-26T06:01:43.264Z,10.58
2017-08-26T06:02:53.210Z,10.59
2017-08-26T06:04:03.480Z,10.64
2017-08-26T06:05:13.751Z,10.61
2017-08-26T06:06:24.021Z,10.67
2017-08-26T06:07:34.287Z,10.61
2017-08-26T06:08:44.237Z,10.57
2017-08-26T06:09:54.182Z,10.59
2017-08-26T06:11:04.129Z,10.61
2017-08-26T06:12:14.396Z,10.61
2017-08-26T06:13:24.346Z,10.62
2017-08-26T06:14:34.620Z,10.64
2017-08-26T06:15:44.573Z,10.59
2017-08-26T06:16:54.527Z,10.59
2017-08-26T06:18:04.811Z,10.58
2017-08-26T06:19:15.079Z,10.57
2017-08-26T06:20:25.347Z,10.58
2017-08-26T06:21:35.616Z,10.62
2017-08-26T06:22:45.890Z,10.62
2017-08-26T06:23:56.155Z,10.61
2017-08-26T06:25:05.781Z,10.58
2017-08-26T06:26:16.054Z,10.62
2017-08-26T06:27:26.002Z,10.61
2017-08-26T06:28:36.273Z,10.64
2017-08-26T06:29:46.544Z,10.71
2017-08-26T06:30:56.816Z,10.72
2017-08-26T06:32:07.084Z,10.65
2017-08-26T06:33:17.030Z,10.77
2017-08-26T06:34:26.976Z,10.72
2017-08-26T06:35:37.247Z,10.69
2017-08-26T06:36:47.515Z,10.8
2017-08-26T06:37:57.796Z,10.82
2017-08-26T06:39:08.063Z,10.84
2017-08-26T06:40:18.051Z,10.89
2017-08-26T06:41:28.324Z,10.98
2017-08-26T06:42:38.591Z,10.98
2017-08-26T06:43:48.868Z,11.04
2017-08-26T06:44:59.145Z,11.08
2017-08-26T06:46:09.102Z,11
2017-08-26T06:47:19.055Z,11.05
2017-08-26T06:48:29.003Z,11.02
2017-08-26T06:49:39.273Z,11
2017-08-26T06:50:49.539Z,11.04
2017-08-26T06:51:59.815Z,11.08
2017-08-26T06:53:09.438Z,11.13
2017-08-26T06:54:19.709Z,11.08
2017-08-26T06:55:29.981Z,11.13
2017-08-26T06:56:39.936Z,11.22
2017-08-26T06:57:50.209Z,11.16
2017-08-26T06:58:59.837Z,11.3
2017-08-26T07:00:10.104Z,11.27
2017-08-26T07:01:20.374Z,11.26
2017-08-26T07:02:29.679Z,11.3
2017-08-26T07:03:39.964Z,11.31
2017-08-26T07:04:50.231Z,11.41
2017-08-26T07:06:00.498Z,11.43
2017-08-26T07:07:10.442Z,11.56
2017-08-26T07:08:20.712Z,11.43
2017-08-26T07:09:30.984Z,11.49
2017-08-26T07:10:40.942Z,11.51
2017-08-26T07:11:50.943Z,11.45
2017-08-26T07:13:00.889Z,11.51
2017-08-26T07:14:11.183Z,11.51
2017-08-26T07:15:21.448Z,11.52
2017-08-26T07:16:31.730Z,11.45
2017-08-26T07:17:41.676Z,11.45
2017-08-26T07:18:51.624Z,11.56
2017-08-26T07:20:01.895Z,11.6
2017-08-26T07:21:12.163Z,11.6
2017-08-26T07:22:22.117Z,11.59
2017-08-26T07:23:32.383Z,11.65
2017-08-26T07:24:42.327Z,11.62
2017-08-26T07:25:52.605Z,11.59
2017-08-26T07:27:02.875Z,11.65
2017-08-26T07:28:12.826Z,11.62
2017-08-26T07:29:23.096Z,11.76
2017-08-26T07:30:33.048Z,11.74
2017-08-26T07:31:42.670Z,11.76
2017-08-26T07:32:52.298Z,11.8
2017-08-26T07:34:02.244Z,11.76
2017-08-26T07:35:12.512Z,11.89
2017-08-26T07:36:22.789Z,11.81
2017-08-26T07:37:32.735Z,11.91
2017-08-26T07:38:43.005Z,11.83
2017-08-26T07:39:53.279Z,11.81
2017-08-26T07:41:03.253Z,11.91
2017-08-26T07:42:13.203Z,11.81
2017-08-26T07:43:23.498Z,11.81
2017-08-26T07:44:33.770Z,11.91
2017-08-26T07:45:44.045Z,11.88
2017-08-26T07:46:54.312Z,11.96
2017-08-26T07:48:03.623Z,12.07
2017-08-26T07:49:13.247Z,12.1
2017-08-26T07:50:23.516Z,12.1
2017-08-26T07:51:33.471Z,12.18
2017-08-26T07:52:43.739Z,12.18
2017-08-26T07:53:54.006Z,12.2
2017-08-26T07:55:04.277Z,12.26
2017-08-26T07:56:14.225Z,12.26
2017-08-26T07:57:24.496Z,12.17
2017-08-26T07:58:34.775Z,12.26
2017-08-26T07:59:45.047Z,12.29
2017-08-26T08:00:55.315Z,12.33
2017-08-26T08:02:05.261Z,12.33
2017-08-26T08:03:14.246Z,12.39
2017-08-26T08:04:24.522Z,12.43
2017-08-26T08:05:34.792Z,12.44
2017-08-26T08:06:44.738Z,12.47
2017-08-26T08:07:55.007Z,12.44
2017-08-26T08:09:05.276Z,12.57
2017-08-26T08:10:15.551Z,12.55
2017-08-26T08:11:25.178Z,12.48
2017-08-26T08:12:35.446Z,12.62
2017-08-26T08:13:45.713Z,12.62
2017-08-26T08:14:55.986Z,12.62
2017-08-26T08:16:06.276Z,12.66
2017-08-26T08:17:15.910Z,12.58
2017-08-26T08:18:25.545Z,12.61
2017-08-26T08:19:35.498Z,12.72
2017-08-26T08:20:45.448Z,12.7
2017-08-26T08:21:55.718Z,12.69
2017-08-26T08:23:05.992Z,12.63
2017-08-26T08:24:15.945Z,12.83
2017-08-26T08:25:26.238Z,12.69
2017-08-26T08:26:36.186Z,12.68
2017-08-26T08:27:46.494Z,12.84
2017-08-26T08:28:56.440Z,12.9
2017-08-26T08:30:06.739Z,12.91
2017-08-26T08:31:18.670Z,12.98
2017-08-26T08:32:28.617Z,12.91
2017-08-26T08:33:38.564Z,13.05
2017-08-26T08:34:48.522Z,13.09
2017-08-26T08:35:58.466Z,13.13
2017-08-26T08:37:08.416Z,13.19
2017-08-26T08:38:18.363Z,13.26
2017-08-26T08:39:28.634Z,13.26
2017-08-26T08:40:38.920Z,13.27
2017-08-26T08:41:48.575Z,13.24
2017-08-26T08:42:58.526Z,13.3
2017-08-26T08:44:08.152Z,13.27
2017-08-26T08:45:18.436Z,13.36
2017-08-26T08:46:28.714Z,13.33
2017-08-26T08:47:38.991Z,13.45
2017-08-26T08:48:48.617Z,13.58
2017-08-26T08:49:58.245Z,13.47
2017-08-26T08:51:07.883Z,13.62
2017-08-26T08:52:17.832Z,13.67
2017-08-26T08:53:28.107Z,13.57
2017-08-26T08:54:38.378Z,13.64
2017-08-26T08:55:48.015Z,13.68
2017-08-26T08:56:57.963Z,13.79
2017-08-26T08:58:07.593Z,13.76
2017-08-26T08:59:17.865Z,13.87
2017-08-26T09:00:28.141Z,13.79
2017-08-26T09:01:37.773Z,13.68
2017-08-26T09:02:48.060Z,13.67
2017-08-26T09:03:58.006Z,13.75
2017-08-26T09:05:07.667Z,13.71
2017-08-26T09:06:17.945Z,13.71
2017-08-26T09:07:28.215Z,13.65
2017-08-26T09:08:38.486Z,13.65
2017-08-26T09:09:49.167Z,13.67
2017-08-26T09:10:59.120Z,13.61
2017-08-26T09:12:09.391Z,13.62
2017-08-26T09:13:19.342Z,13.62
2017-08-26T09:14:29.294Z,13.57
2017-08-26T09:15:39.568Z,13.5
2017-08-26T09:16:49.846Z,13.47
2017-08-26T09:18:00.115Z,13.49
2017-08-26T09:19:09.744Z,13.62
2017-08-26T09:20:20.015Z,13.64
2017-08-26T09:21:29.965Z,13.86
2017-08-26T09:22:40.233Z,13.82
2017-08-26T09:23:50.181Z,13.95
2017-08-26T09:25:00.129Z,13.97
2017-08-26T09:26:10.080Z,14.15
2017-08-26T09:27:20.029Z,14.12
2017-08-26T09:28:29.662Z,14.15
2017-08-26T09:29:39.938Z,14.2
2017-08-26T09:30:50.206Z,14.28
2017-08-26T09:32:00.154Z,14.43
2017-08-26T09:33:10.102Z,14.44
2017-08-26T09:34:20.060Z,14.4
2017-08-26T09:35:30.012Z,14.38
2017-08-26T09:36:40.282Z,14.58
2017-08-26T09:37:50.548Z,14.66
2017-08-26T09:39:00.828Z,14.56
2017-08-26T09:40:11.102Z,14.66
2017-08-26T09:41:20.752Z,14.63
2017-08-26T09:42:31.021Z,14.71
2017-08-26T09:43:40.982Z,14.77
2017-08-26T09:44:50.609Z,14.74
2017-08-26T09:46:00.239Z,14.58
2017-08-26T09:47:10.515Z,14.51
2017-08-26T09:48:20.470Z,14.62
2017-08-26T09:49:30.120Z,14.7
2017-08-26T09:50:40.389Z,14.71
2017-08-26T09:51:50.342Z,14.7
2017-08-26T09:53:00.294Z,14.61
2017-08-26T09:54:10.566Z,14.63
2017-08-26T09:55:20.837Z,14.66
2017-08-26T09:56:30.792Z,14.77
2017-08-26T09:57:40.421Z,14.77
2017-08-26T09:58:50.700Z,14.86
2017-08-26T10:00:00.648Z,14.89
2017-08-26T10:01:10.276Z,14.7
2017-08-26T10:02:20.228Z,14.58
2017-08-26T10:03:30.498Z,14.51
2017-08-26T10:04:40.489Z,14.61
2017-08-26T10:05:50.440Z,14.7
2017-08-26T10:07:00.722Z,14.61
2017-08-26T10:08:10.992Z,14.68
2017-08-26T10:09:21.268Z,14.73
2017-08-26T10:10:31.539Z,14.63
2017-08-26T10:11:41.816Z,14.82
2017-08-26T10:12:51.446Z,14.9
2017-08-26T10:14:01.394Z,14.81
2017-08-26T10:15:11.023Z,14.92
2017-08-26T10:16:21.290Z,15
2017-08-26T10:17:31.568Z,14.94
2017-08-26T10:18:41.838Z,15.05
2017-08-26T10:19:51.799Z,15.08
2017-08-26T10:21:01.750Z,15.15
2017-08-26T10:22:12.024Z,15.19
2017-08-26T10:23:22.302Z,15.19
2017-08-26T10:24:32.572Z,15.22
2017-08-26T10:25:42.852Z,15.33
2017-08-26T10:26:53.123Z,15.43
2017-08-26T10:28:03.074Z,15.5
2017-08-26T10:29:13.349Z,15.59
2017-08-26T10:30:22.980Z,15.66
2017-08-26T10:31:33.265Z,15.75
2017-08-26T10:32:43.217Z,15.8
2017-08-26T10:33:53.492Z,15.9
2017-08-26T10:35:03.766Z,15.91
2017-08-26T10:36:14.037Z,15.91
2017-08-26T10:37:23.991Z,15.98
2017-08-26T10:38:34.268Z,16.03
2017-08-26T10:39:43.898Z,16.24
2017-08-26T10:40:54.179Z,16.25
2017-08-26T10:42:04.460Z,16.28
2017-08-26T10:43:14.410Z,16.29
2017-08-26T10:44:24.362Z,16.39
2017-08-26T10:45:34.749Z,16.41
2017-08-26T10:46:44.706Z,16.58
2017-08-26T10:47:54.980Z,16.44
2017-08-26T10:49:04.929Z,16.51
2017-08-26T10:50:14.557Z,16.65
2017-08-26T10:51:24.829Z,16.55
2017-08-26T10:52:35.102Z,16.64
2017-08-26T10:53:44.729Z,16.58
2017-08-26T10:54:55.000Z,16.37
2017-08-26T10:56:04.966Z,16.24
2017-08-26T10:57:15.241Z,16.03
2017-08-26T10:58:25.194Z,15.91
2017-08-26T10:59:35.465Z,15.98
2017-08-26T11:00:45.418Z,16.02
2017-08-26T11:01:55.045Z,16.18
2017-08-26T11:03:04.676Z,16.16
2017-08-26T11:04:14.636Z,16.31
2017-08-26T11:05:24.595Z,16.39
2017-08-26T11:06:34.867Z,16.51
2017-08-26T11:07:45.152Z,16.51
2017-08-26T11:08:55.107Z,16.58
2017-08-26T11:10:04.742Z,16.76
2017-08-26T11:11:14.698Z,16.86
2017-08-26T11:12:24.976Z,16.89
2017-08-26T11:13:34.610Z,17.05
2017-08-26T11:14:44.883Z,17.17
2017-08-26T11:15:55.156Z,17.22
2017-08-26T11:17:04.784Z,17.44
2017-08-26T11:18:14.741Z,17.59
2017-08-26T11:19:25.018Z,17.91
2017-08-26T11:20:35.291Z,18.43
2017-08-26T11:21:45.563Z,18.81
2017-08-26T11:22:55.516Z,19.37
2017-08-26T11:24:04.824Z,19.97
2017-08-26T11:25:14.779Z,20.6
2017-08-26T11:26:24.732Z,21.11
2017-08-26T11:27:35.013Z,21.75
2017-08-26T11:28:44.651Z,22.22
2017-08-26T11:29:54.606Z,22.7
2017-08-26T11:31:04.564Z,23.21
2017-08-26T11:32:14.841Z,23.71
2017-08-26T11:33:25.123Z,24.09
2017-08-26T11:34:35.082Z,24.46
2017-08-26T11:35:45.367Z,24.86
2017-08-26T11:36:55.325Z,24.31
2017-08-26T11:38:05.612Z,24.18
2017-08-26T11:39:15.571Z,24.28
2017-08-26T11:40:25.210Z,24.56
2017-08-26T11:41:35.490Z,24.97
2017-08-26T11:42:45.464Z,25.4
2017-08-26T11:43:55.424Z,25.67
2017-08-26T11:45:05.385Z,25.51
2017-08-26T11:46:15.672Z,24.59
2017-08-26T11:47:25.953Z,24.4
2017-08-26T11:48:35.923Z,23.96
2017-08-26T11:49:46.205Z,23.73
2017-08-26T11:50:56.486Z,23.84
2017-08-26T11:52:05.805Z,24.46
2017-08-26T11:53:16.092Z,24.86
2017-08-26T11:54:26.375Z,25.4
2017-08-26T11:55:36.339Z,25.76
2017-08-26T11:56:46.619Z,25.29
2017-08-26T11:57:56.580Z,24.88
2017-08-26T11:59:06.219Z,25.48
2017-08-26T12:00:16.182Z,26.01
2017-08-26T12:01:26.490Z,26.3
2017-08-26T12:02:36.458Z,26.64
2017-08-26T12:03:46.423Z,26.92
2017-08-26T12:04:56.708Z,27.29
2017-08-26T12:06:06.358Z,27.78
2017-08-26T12:07:16.000Z,27.9
2017-08-26T12:08:26.298Z,28.34
2017-08-26T12:09:36.263Z,28.75
2017-08-26T12:10:46.555Z,28.74
2017-08-26T12:11:56.844Z,29.28
2017-08-26T12:13:07.133Z,29.73
2017-08-26T12:14:17.102Z,29.61
2017-08-26T12:15:27.395Z,29.34
2017-08-26T12:16:37.681Z,29.34
2017-08-26T12:17:47.646Z,29.61
2017-08-26T12:18:57.936Z,29.59
2017-08-26T12:20:08.224Z,29.74
2017-08-26T12:21:17.873Z,29.92
2017-08-26T12:22:27.842Z,30.16
2017-08-26T12:23:38.137Z,30.21
2017-08-26T12:24:48.429Z,30.43
2017-08-26T12:25:58.394Z,30.59
2017-08-26T12:27:08.683Z,30.83
2017-08-26T12:28:18.968Z,31.05
2017-08-26T12:29:28.613Z,31.39
2017-08-26T12:30:38.577Z,31.72
2017-08-26T12:31:48.548Z,31.89
2017-08-26T12:32:58.830Z,32.11
2017-08-26T12:34:09.120Z,32.15
2017-08-26T12:35:19.409Z,32.46
2017-08-26T12:36:29.052Z,32.86
2017-08-26T12:37:39.014Z,33.05
2017-08-26T12:38:49.309Z,33.03
2017-08-26T12:39:59.277Z,33.12
2017-08-26T12:41:09.244Z,33.44
2017-08-26T12:42:19.532Z,33.48
2017-08-26T12:43:29.818Z,33.2
2017-08-26T12:44:39.471Z,33.29
2017-08-26T12:45:49.457Z,33.47
2017-08-26T12:46:59.781Z,33.45
2017-08-26T12:48:09.747Z,33.57
2017-08-26T12:49:19.726Z,33.72
2017-08-26T12:50:30.016Z,33.69
2017-08-26T12:51:40.304Z,33.84
2017-08-26T12:52:50.591Z,33.98
2017-08-26T12:54:00.559Z,34.21
2017-08-26T12:55:10.532Z,34.44
2017-08-26T12:56:20.500Z,34.59
2017-08-26T12:57:30.474Z,34.7
2017-08-26T12:58:40.762Z,34.48
2017-08-26T12:59:50.408Z,34.46
2017-08-26T13:01:00.373Z,34.41
2017-08-26T13:02:10.662Z,34.32
2017-08-26T13:03:20.950Z,34.13
2017-08-26T13:04:31.241Z,34.07
2017-08-26T13:05:41.526Z,34.33
2017-08-26T13:06:51.822Z,34.53
2017-08-26T13:08:01.475Z,34.44
2017-08-26T13:09:11.771Z,34.58
2017-08-26T13:10:22.067Z,34.38
2017-08-26T13:11:32.034Z,34.58
2017-08-26T13:12:42.005Z,34.65
2017-08-26T13:13:52.293Z,34.81
2017-08-26T13:15:02.262Z,34.1
2017-08-26T13:16:12.256Z,34.16
2017-08-26T13:17:22.544Z,33.98
2017-08-26T13:18:32.834Z,33.85
2017-08-26T13:19:43.126Z,33.03
2017-08-26T13:20:53.095Z,32.01
2017-08-26T13:22:02.421Z,32.27
2017-08-26T13:23:12.719Z,32.91
2017-08-26T13:24:23.007Z,33.39
2017-08-26T13:25:32.656Z,33.75
2017-08-26T13:26:42.624Z,33.91
2017-08-26T13:27:52.611Z,34.06
2017-08-26T13:29:02.578Z,34.29
2017-08-26T13:30:12.875Z,34.55
2017-08-26T13:31:22.841Z,34.46
2017-08-26T13:32:33.136Z,34.65
2017-08-26T13:33:43.424Z,35.07
2017-08-26T13:34:53.391Z,35.31
2017-08-26T13:36:03.684Z,35.41
2017-08-26T13:37:14.029Z,35.72
2017-08-26T13:38:23.997Z,35.97
2017-08-26T13:39:33.649Z,36.08
2017-08-26T13:40:43.616Z,35.98
2017-08-26T13:41:53.586Z,35.94
2017-08-26T13:43:03.875Z,36.13
2017-08-26T13:44:14.166Z,36
2017-08-26T13:45:24.457Z,36.08
2017-08-26T13:46:34.106Z,36.18
2017-08-26T13:47:44.401Z,36.29
2017-08-26T13:48:54.690Z,36.55
2017-08-26T13:50:04.660Z,36.72
2017-08-26T13:51:14.358Z,36.91
2017-08-26T13:52:24.330Z,36.8
2017-08-26T13:53:34.641Z,36.76
2017-08-26T13:54:44.608Z,36.88
2017-08-26T13:55:54.915Z,36.94
2017-08-26T13:57:04.888Z,36.87
2017-08-26T13:58:14.854Z,36.47
2017-08-26T13:59:25.156Z,36.41
2017-08-26T14:00:35.443Z,36.45
2017-08-26T14:01:45.414Z,36.75
2017-08-26T14:02:55.383Z,36.82
2017-08-26T14:04:05.029Z,36.82
2017-08-26T14:05:15.054Z,36.63
2017-08-26T14:06:25.024Z,36.89
2017-08-26T14:07:35.333Z,37
2017-08-26T14:08:45.622Z,36.6
2017-08-26T14:09:55.595Z,36.65
2017-08-26T14:11:05.563Z,36.59
2017-08-26T14:12:15.530Z,36.53
2017-08-26T14:13:25.826Z,36.5
2017-08-26T14:14:36.115Z,36.6
2017-08-26T14:15:45.761Z,36.63
2017-08-26T14:16:55.732Z,36.78
2017-08-26T14:18:05.700Z,36.81
2017-08-26T14:19:15.670Z,37
2017-08-26T14:20:25.959Z,36.55
2017-08-26T14:21:36.247Z,36.53
2017-08-26T14:22:46.536Z,36.39
2017-08-26T14:23:56.506Z,36.54
2017-08-26T14:25:06.471Z,36.67
2017-08-26T14:26:16.769Z,36.94
2017-08-26T14:27:27.062Z,36.87
2017-08-26T14:28:37.030Z,36.75
2017-08-26T14:29:46.676Z,36.8
2017-08-26T14:30:56.646Z,36.7
2017-08-26T14:32:06.934Z,36.75
2017-08-26T14:33:17.233Z,37.04
2017-08-26T14:34:27.211Z,36.84
2017-08-26T14:35:37.178Z,36.67
2017-08-26T14:36:47.473Z,36.78
2017-08-26T14:37:57.764Z,36.39
2017-08-26T14:39:08.066Z,36.57
2017-08-26T14:40:18.039Z,36.67
2017-08-26T14:41:28.331Z,36.67
2017-08-26T14:42:38.624Z,36.81
2017-08-26T14:43:48.911Z,36.7
2017-08-26T14:44:59.203Z,36.39
2017-08-26T14:46:09.174Z,35.79
2017-08-26T14:47:19.142Z,35.96
2017-08-26T14:48:29.138Z,35.71
2017-08-26T14:49:39.428Z,35.64
2017-08-26T14:50:49.719Z,35.59
2017-08-26T14:52:00.008Z,35.69
2017-08-26T14:53:09.655Z,35.71
2017-08-26T14:54:19.950Z,35.59
2017-08-26T14:55:30.238Z,35.61
2017-08-26T14:56:40.537Z,35.5
2017-08-26T14:57:50.502Z,35.64
2017-08-26T14:59:00.479Z,35.84
2017-08-26T15:00:10.446Z,35.76
2017-08-26T15:01:20.735Z,35.84
2017-08-26T15:02:31.023Z,36.13
2017-08-26T15:03:41.314Z,36.03
2017-08-26T15:04:50.637Z,36.11
2017-08-26T15:06:00.951Z,36.36
2017-08-26T15:07:11.246Z,36.44
2017-08-26T15:08:21.533Z,36.32
2017-08-26T15:09:31.500Z,36.48
2017-08-26T15:10:41.148Z,36.78